sensor_id;sensor_type;location;lat;lon;timestamp;P1;durP1;ratioP1;P2;durP2;ratioP2
20986;SDS011;10652;50.306;8.570;2023-03-19T00:03:37;14.68;;;8.60;;
20986;SDS011;10652;50.306;8.570;2023-03-19T00:07:39;12.90;;;7.25;;
20986;SDS011;10652;50.306;8.570;2023-03-19T00:11:41;9.93;;;6.70;;
20986;SDS011;10652;50.306;8.570;2023-03-19T00:15:43;11.57;;;6.28;;
20986;SDS011;10652;50.306;8.570;2023-03-19T00:19:45;11.30;;;6.30;;
20986;SDS011;10652;50.306;8.570;2023-03-19T00:23:47;9.25;;;5.97;;
20986;SDS011;10652;50.306;8.570;2023-03-19T00:27:49;11.05;;;6.55;;
20986;SDS011;10652;50.306;8.570;2023-03-19T00:31:53;14.20;;;7.75;;
20986;SDS011;10652;50.306;8.570;2023-03-19T00:35:55;11.20;;;7.50;;
20986;SDS011;10652;50.306;8.570;2023-03-19T00:39:57;12.10;;;7.70;;
20986;SDS011;10652;50.306;8.570;2023-03-19T00:44:00;11.38;;;7.55;;
20986;SDS011;10652;50.306;8.570;2023-03-19T00:48:04;9.80;;;6.13;;
20986;SDS011;10652;50.306;8.570;2023-03-19T00:52:06;9.98;;;6.70;;
20986;SDS011;10652;50.306;8.570;2023-03-19T00:56:09;12.48;;;6.80;;
20986;SDS011;10652;50.306;8.570;2023-03-19T01:00:13;18.48;;;9.80;;
20986;SDS011;10652;50.306;8.570;2023-03-19T01:04:15;14.57;;;7.65;;
20986;SDS011;10652;50.306;8.570;2023-03-19T01:08:17;10.98;;;6.95;;
20986;SDS011;10652;50.306;8.570;2023-03-19T01:12:20;7.97;;;5.45;;
20986;SDS011;10652;50.306;8.570;2023-03-19T01:16:22;8.30;;;5.88;;
20986;SDS011;10652;50.306;8.570;2023-03-19T01:20:24;11.00;;;5.57;;
20986;SDS011;10652;50.306;8.570;2023-03-19T01:24:30;8.75;;;5.07;;
20986;SDS011;10652;50.306;8.570;2023-03-19T01:28:32;8.07;;;4.30;;
20986;SDS011;10652;50.306;8.570;2023-03-19T01:32:34;8.52;;;4.90;;
20986;SDS011;10652;50.306;8.570;2023-03-19T01:36:55;9.60;;;4.63;;
20986;SDS011;10652;50.306;8.570;2023-03-19T01:41:03;7.72;;;5.38;;
20986;SDS011;10652;50.306;8.570;2023-03-19T01:45:27;7.55;;;5.13;;
20986;SDS011;10652;50.306;8.570;2023-03-19T01:49:55;11.48;;;5.63;;
20986;SDS011;10652;50.306;8.570;2023-03-19T01:53:59;8.23;;;4.45;;
20986;SDS011;10652;50.306;8.570;2023-03-19T01:58:42;7.47;;;3.88;;
20986;SDS011;10652;50.306;8.570;2023-03-19T02:02:55;7.63;;;3.60;;
20986;SDS011;10652;50.306;8.570;2023-03-19T02:07:19;8.65;;;3.80;;
20986;SDS011;10652;50.306;8.570;2023-03-19T02:11:22;5.75;;;3.78;;
20986;SDS011;10652;50.306;8.570;2023-03-19T02:15:24;5.13;;;3.28;;
20986;SDS011;10652;50.306;8.570;2023-03-19T02:19:29;6.05;;;3.00;;
20986;SDS011;10652;50.306;8.570;2023-03-19T02:28:17;5.82;;;3.08;;
20986;SDS011;10652;50.306;8.570;2023-03-19T02:32:25;4.38;;;3.10;;
20986;SDS011;10652;50.306;8.570;2023-03-19T02:36:47;6.50;;;3.30;;
20986;SDS011;10652;50.306;8.570;2023-03-19T02:41:03;5.97;;;3.10;;
20986;SDS011;10652;50.306;8.570;2023-03-19T02:45:07;5.68;;;3.47;;
20986;SDS011;10652;50.306;8.570;2023-03-19T02:49:09;6.07;;;3.42;;
20986;SDS011;10652;50.306;8.570;2023-03-19T02:53:13;7.57;;;3.40;;
20986;SDS011;10652;50.306;8.570;2023-03-19T02:57:16;8.98;;;3.83;;
20986;SDS011;10652;50.306;8.570;2023-03-19T03:01:18;7.40;;;3.53;;
20986;SDS011;10652;50.306;8.570;2023-03-19T03:05:21;6.80;;;3.47;;
20986;SDS011;10652;50.306;8.570;2023-03-19T03:09:24;7.47;;;3.83;;
20986;SDS011;10652;50.306;8.570;2023-03-19T03:13:26;5.45;;;3.17;;
20986;SDS011;10652;50.306;8.570;2023-03-19T03:17:28;6.47;;;2.85;;
20986;SDS011;10652;50.306;8.570;2023-03-19T03:21:31;6.50;;;2.90;;
20986;SDS011;10652;50.306;8.570;2023-03-19T03:25:36;5.72;;;2.83;;
20986;SDS011;10652;50.306;8.570;2023-03-19T03:29:38;6.22;;;2.95;;
20986;SDS011;10652;50.306;8.570;2023-03-19T03:33:41;6.50;;;2.67;;
20986;SDS011;10652;50.306;8.570;2023-03-19T03:37:43;6.03;;;2.55;;
20986;SDS011;10652;50.306;8.570;2023-03-19T03:41:45;3.63;;;2.42;;
20986;SDS011;10652;50.306;8.570;2023-03-19T03:45:47;4.35;;;2.42;;
20986;SDS011;10652;50.306;8.570;2023-03-19T03:49:50;6.05;;;2.13;;
20986;SDS011;10652;50.306;8.570;2023-03-19T03:53:52;3.35;;;2.35;;
20986;SDS011;10652;50.306;8.570;2023-03-19T03:57:54;3.13;;;2.58;;
20986;SDS011;10652;50.306;8.570;2023-03-19T04:01:57;3.50;;;1.83;;
20986;SDS011;10652;50.306;8.570;2023-03-19T04:05:59;4.10;;;2.30;;
20986;SDS011;10652;50.306;8.570;2023-03-19T04:10:01;4.40;;;1.80;;
20986;SDS011;10652;50.306;8.570;2023-03-19T04:14:04;5.20;;;2.40;;
20986;SDS011;10652;50.306;8.570;2023-03-19T04:18:08;4.18;;;1.95;;
20986;SDS011;10652;50.306;8.570;2023-03-19T04:22:10;3.20;;;1.98;;
20986;SDS011;10652;50.306;8.570;2023-03-19T04:26:13;3.55;;;2.33;;
20986;SDS011;10652;50.306;8.570;2023-03-19T04:30:15;5.85;;;2.72;;
20986;SDS011;10652;50.306;8.570;2023-03-19T04:34:17;5.05;;;2.70;;
20986;SDS011;10652;50.306;8.570;2023-03-19T04:38:20;3.95;;;1.77;;
20986;SDS011;10652;50.306;8.570;2023-03-19T04:42:22;4.47;;;1.67;;
20986;SDS011;10652;50.306;8.570;2023-03-19T04:46:32;1.90;;;1.30;;
20986;SDS011;10652;50.306;8.570;2023-03-19T04:50:34;2.78;;;1.40;;
20986;SDS011;10652;50.306;8.570;2023-03-19T04:54:37;3.10;;;1.45;;
20986;SDS011;10652;50.306;8.570;2023-03-19T04:58:39;2.00;;;1.10;;
20986;SDS011;10652;50.306;8.570;2023-03-19T05:02:41;2.00;;;1.20;;
20986;SDS011;10652;50.306;8.570;2023-03-19T05:06:44;2.50;;;1.60;;
20986;SDS011;10652;50.306;8.570;2023-03-19T05:10:46;3.15;;;1.92;;
20986;SDS011;10652;50.306;8.570;2023-03-19T05:14:48;3.15;;;1.77;;
20986;SDS011;10652;50.306;8.570;2023-03-19T05:18:54;3.47;;;1.52;;
20986;SDS011;10652;50.306;8.570;2023-03-19T05:22:57;3.70;;;1.50;;
20986;SDS011;10652;50.306;8.570;2023-03-19T05:27:10;2.75;;;1.45;;
20986;SDS011;10652;50.306;8.570;2023-03-19T05:31:22;3.63;;;1.55;;
20986;SDS011;10652;50.306;8.570;2023-03-19T05:35:28;5.25;;;1.70;;
20986;SDS011;10652;50.306;8.570;2023-03-19T05:39:32;3.35;;;1.77;;
20986;SDS011;10652;50.306;8.570;2023-03-19T05:43:38;3.90;;;1.83;;
20986;SDS011;10652;50.306;8.570;2023-03-19T05:47:46;3.95;;;2.10;;
20986;SDS011;10652;50.306;8.570;2023-03-19T05:51:50;5.20;;;2.25;;
20986;SDS011;10652;50.306;8.570;2023-03-19T05:55:52;3.05;;;1.95;;
20986;SDS011;10652;50.306;8.570;2023-03-19T05:59:54;2.35;;;1.73;;
20986;SDS011;10652;50.306;8.570;2023-03-19T06:04:14;3.60;;;2.00;;
20986;SDS011;10652;50.306;8.570;2023-03-19T06:08:17;3.10;;;2.08;;
20986;SDS011;10652;50.306;8.570;2023-03-19T06:12:38;5.15;;;2.55;;
20986;SDS011;10652;50.306;8.570;2023-03-19T06:16:55;12.20;;;6.27;;
20986;SDS011;10652;50.306;8.570;2023-03-19T06:20:58;11.77;;;5.72;;
20986;SDS011;10652;50.306;8.570;2023-03-19T06:25:00;8.70;;;4.25;;
20986;SDS011;10652;50.306;8.570;2023-03-19T06:29:04;6.80;;;3.65;;
20986;SDS011;10652;50.306;8.570;2023-03-19T06:33:06;5.75;;;3.20;;
20986;SDS011;10652;50.306;8.570;2023-03-19T06:37:09;6.18;;;3.30;;
20986;SDS011;10652;50.306;8.570;2023-03-19T06:41:11;7.00;;;3.40;;
20986;SDS011;10652;50.306;8.570;2023-03-19T06:45:13;5.80;;;2.78;;
20986;SDS011;10652;50.306;8.570;2023-03-19T06:49:20;5.67;;;2.70;;
20986;SDS011;10652;50.306;8.570;2023-03-19T06:53:22;4.55;;;2.30;;
20986;SDS011;10652;50.306;8.570;2023-03-19T06:57:24;6.00;;;2.30;;
20986;SDS011;10652;50.306;8.570;2023-03-19T07:01:26;6.63;;;2.00;;
20986;SDS011;10652;50.306;8.570;2023-03-19T07:05:29;2.92;;;1.77;;
20986;SDS011;10652;50.306;8.570;2023-03-19T07:09:31;4.53;;;1.85;;
20986;SDS011;10652;50.306;8.570;2023-03-19T07:13:33;4.43;;;2.00;;
20986;SDS011;10652;50.306;8.570;2023-03-19T07:17:35;3.85;;;1.70;;
20986;SDS011;10652;50.306;8.570;2023-03-19T07:21:37;6.75;;;1.83;;
20986;SDS011;10652;50.306;8.570;2023-03-19T07:25:39;2.35;;;1.50;;
20986;SDS011;10652;50.306;8.570;2023-03-19T07:29:42;3.33;;;1.75;;
20986;SDS011;10652;50.306;8.570;2023-03-19T07:33:44;3.75;;;1.77;;
20986;SDS011;10652;50.306;8.570;2023-03-19T07:37:46;2.80;;;1.80;;
20986;SDS011;10652;50.306;8.570;2023-03-19T07:41:48;3.97;;;1.67;;
20986;SDS011;10652;50.306;8.570;2023-03-19T07:45:50;3.83;;;1.63;;
20986;SDS011;10652;50.306;8.570;2023-03-19T07:49:52;2.85;;;1.73;;
20986;SDS011;10652;50.306;8.570;2023-03-19T07:53:54;2.17;;;1.45;;
20986;SDS011;10652;50.306;8.570;2023-03-19T07:57:57;3.33;;;1.60;;
20986;SDS011;10652;50.306;8.570;2023-03-19T08:01:58;3.30;;;1.70;;
20986;SDS011;10652;50.306;8.570;2023-03-19T08:06:00;4.03;;;2.00;;
20986;SDS011;10652;50.306;8.570;2023-03-19T08:10:03;5.30;;;2.08;;
20986;SDS011;10652;50.306;8.570;2023-03-19T08:14:06;3.97;;;1.90;;
20986;SDS011;10652;50.306;8.570;2023-03-19T08:18:08;3.58;;;1.83;;
20986;SDS011;10652;50.306;8.570;2023-03-19T08:22:10;5.85;;;2.58;;
20986;SDS011;10652;50.306;8.570;2023-03-19T08:26:12;3.75;;;1.73;;
20986;SDS011;10652;50.306;8.570;2023-03-19T08:30:15;4.95;;;1.75;;
20986;SDS011;10652;50.306;8.570;2023-03-19T08:34:18;3.95;;;1.65;;
20986;SDS011;10652;50.306;8.570;2023-03-19T08:38:20;5.97;;;3.28;;
20986;SDS011;10652;50.306;8.570;2023-03-19T08:42:22;9.00;;;5.10;;
20986;SDS011;10652;50.306;8.570;2023-03-19T08:46:25;7.80;;;6.82;;
20986;SDS011;10652;50.306;8.570;2023-03-19T08:50:28;4.18;;;2.42;;
20986;SDS011;10652;50.306;8.570;2023-03-19T08:54:30;3.20;;;2.33;;
20986;SDS011;10652;50.306;8.570;2023-03-19T08:58:32;3.30;;;1.63;;
20986;SDS011;10652;50.306;8.570;2023-03-19T09:02:35;3.65;;;1.60;;
20986;SDS011;10652;50.306;8.570;2023-03-19T09:06:37;1.92;;;1.35;;
20986;SDS011;10652;50.306;8.570;2023-03-19T09:10:39;3.97;;;2.10;;
20986;SDS011;10652;50.306;8.570;2023-03-19T09:14:41;2.78;;;1.63;;
20986;SDS011;10652;50.306;8.570;2023-03-19T09:18:44;3.50;;;1.85;;
20986;SDS011;10652;50.306;8.570;2023-03-19T09:22:46;2.78;;;1.90;;
20986;SDS011;10652;50.306;8.570;2023-03-19T09:26:48;4.80;;;2.50;;
20986;SDS011;10652;50.306;8.570;2023-03-19T09:30:50;3.85;;;2.80;;
20986;SDS011;10652;50.306;8.570;2023-03-19T09:34:53;4.75;;;2.90;;
20986;SDS011;10652;50.306;8.570;2023-03-19T09:38:55;5.70;;;2.67;;
20986;SDS011;10652;50.306;8.570;2023-03-19T09:43:06;4.93;;;2.90;;
20986;SDS011;10652;50.306;8.570;2023-03-19T09:51:35;3.53;;;2.40;;
20986;SDS011;10652;50.306;8.570;2023-03-19T09:55:47;5.07;;;2.20;;
20986;SDS011;10652;50.306;8.570;2023-03-19T09:59:52;2.20;;;1.70;;
20986;SDS011;10652;50.306;8.570;2023-03-19T10:13:24;1.95;;;0.98;;
20986;SDS011;10652;50.306;8.570;2023-03-19T10:17:34;2.97;;;1.00;;
20986;SDS011;10652;50.306;8.570;2023-03-19T10:21:44;2.53;;;0.70;;
20986;SDS011;10652;50.306;8.570;2023-03-19T10:25:53;1.83;;;0.80;;
20986;SDS011;10652;50.306;8.570;2023-03-19T10:29:57;2.55;;;0.95;;
20986;SDS011;10652;50.306;8.570;2023-03-19T10:34:04;2.80;;;1.30;;
20986;SDS011;10652;50.306;8.570;2023-03-19T10:38:43;2.00;;;1.00;;
20986;SDS011;10652;50.306;8.570;2023-03-19T10:42:48;2.47;;;1.17;;
20986;SDS011;10652;50.306;8.570;2023-03-19T10:47:11;1.85;;;1.00;;
20986;SDS011;10652;50.306;8.570;2023-03-19T10:51:17;2.10;;;0.70;;
20986;SDS011;10652;50.306;8.570;2023-03-19T10:55:24;2.70;;;0.80;;
20986;SDS011;10652;50.306;8.570;2023-03-19T10:59:35;2.20;;;0.80;;
20986;SDS011;10652;50.306;8.570;2023-03-19T11:03:49;2.08;;;0.80;;
20986;SDS011;10652;50.306;8.570;2023-03-19T11:07:57;1.73;;;0.90;;
20986;SDS011;10652;50.306;8.570;2023-03-19T11:12:21;2.08;;;0.88;;
20986;SDS011;10652;50.306;8.570;2023-03-19T11:16:27;1.58;;;0.90;;
20986;SDS011;10652;50.306;8.570;2023-03-19T11:20:31;1.67;;;0.90;;
20986;SDS011;10652;50.306;8.570;2023-03-19T11:24:36;1.88;;;1.10;;
20986;SDS011;10652;50.306;8.570;2023-03-19T11:33:06;3.63;;;1.50;;
20986;SDS011;10652;50.306;8.570;2023-03-19T11:37:15;4.15;;;1.95;;
20986;SDS011;10652;50.306;8.570;2023-03-19T11:41:36;3.08;;;1.80;;
20986;SDS011;10652;50.306;8.570;2023-03-19T11:58:53;2.10;;;0.95;;
20986;SDS011;10652;50.306;8.570;2023-03-19T12:03:15;1.92;;;1.00;;
20986;SDS011;10652;50.306;8.570;2023-03-19T12:11:43;2.45;;;1.30;;
20986;SDS011;10652;50.306;8.570;2023-03-19T12:16:04;1.77;;;1.38;;
20986;SDS011;10652;50.306;8.570;2023-03-19T12:20:19;1.90;;;1.23;;
20986;SDS011;10652;50.306;8.570;2023-03-19T12:33:09;3.10;;;2.00;;
20986;SDS011;10652;50.306;8.570;2023-03-19T12:37:17;4.90;;;2.00;;
20986;SDS011;10652;50.306;8.570;2023-03-19T12:41:23;2.50;;;1.67;;
20986;SDS011;10652;50.306;8.570;2023-03-19T12:45:29;3.08;;;1.80;;
20986;SDS011;10652;50.306;8.570;2023-03-19T12:49:40;2.90;;;1.05;;
20986;SDS011;10652;50.306;8.570;2023-03-19T12:53:55;1.38;;;0.90;;
20986;SDS011;10652;50.306;8.570;2023-03-19T12:58:17;1.15;;;0.80;;
20986;SDS011;10652;50.306;8.570;2023-03-19T13:02:23;2.88;;;1.30;;
20986;SDS011;10652;50.306;8.570;2023-03-19T13:06:42;3.83;;;1.50;;
20986;SDS011;10652;50.306;8.570;2023-03-19T13:10:50;1.25;;;1.08;;
20986;SDS011;10652;50.306;8.570;2023-03-19T13:14:57;1.48;;;1.05;;
20986;SDS011;10652;50.306;8.570;2023-03-19T13:19:30;1.73;;;1.10;;
20986;SDS011;10652;50.306;8.570;2023-03-19T13:23:37;2.20;;;1.00;;
20986;SDS011;10652;50.306;8.570;2023-03-19T13:27:42;1.50;;;0.60;;
20986;SDS011;10652;50.306;8.570;2023-03-19T13:31:52;1.88;;;0.70;;
20986;SDS011;10652;50.306;8.570;2023-03-19T13:36:03;1.15;;;0.60;;
20986;SDS011;10652;50.306;8.570;2023-03-19T13:40:34;2.92;;;0.73;;
20986;SDS011;10652;50.306;8.570;2023-03-19T13:44:46;3.63;;;1.00;;
20986;SDS011;10652;50.306;8.570;2023-03-19T13:48:51;1.30;;;0.80;;
20986;SDS011;10652;50.306;8.570;2023-03-19T13:57:34;1.15;;;0.60;;
20986;SDS011;10652;50.306;8.570;2023-03-19T14:01:37;0.50;;;0.30;;
20986;SDS011;10652;50.306;8.570;2023-03-19T14:05:40;1.23;;;0.52;;
20986;SDS011;10652;50.306;8.570;2023-03-19T14:09:44;0.30;;;0.30;;
20986;SDS011;10652;50.306;8.570;2023-03-19T14:13:50;0.30;;;0.30;;
20986;SDS011;10652;50.306;8.570;2023-03-19T14:17:54;1.23;;;0.40;;
20986;SDS011;10652;50.306;8.570;2023-03-19T14:22:08;0.55;;;0.30;;
20986;SDS011;10652;50.306;8.570;2023-03-19T14:26:22;0.55;;;0.40;;
20986;SDS011;10652;50.306;8.570;2023-03-19T14:30:30;0.95;;;0.70;;
20986;SDS011;10652;50.306;8.570;2023-03-19T14:34:39;0.50;;;0.30;;
20986;SDS011;10652;50.306;8.570;2023-03-19T14:38:46;1.20;;;1.10;;
20986;SDS011;10652;50.306;8.570;2023-03-19T14:47:03;1.55;;;0.90;;
20986;SDS011;10652;50.306;8.570;2023-03-19T14:51:34;1.10;;;0.80;;
20986;SDS011;10652;50.306;8.570;2023-03-19T14:55:45;2.50;;;0.73;;
20986;SDS011;10652;50.306;8.570;2023-03-19T14:59:52;0.30;;;0.10;;
20986;SDS011;10652;50.306;8.570;2023-03-19T15:03:55;0.10;;;0.10;;
20986;SDS011;10652;50.306;8.570;2023-03-19T15:08:02;0.20;;;0.20;;
20986;SDS011;10652;50.306;8.570;2023-03-19T15:16:21;0.43;;;0.20;;
20986;SDS011;10652;50.306;8.570;2023-03-19T15:20:28;0.60;;;0.30;;
20986;SDS011;10652;50.306;8.570;2023-03-19T15:24:43;0.10;;;0.10;;
20986;SDS011;10652;50.306;8.570;2023-03-19T15:28:47;0.00;;;0.00;;
20986;SDS011;10652;50.306;8.570;2023-03-19T15:32:54;0.55;;;0.40;;
20986;SDS011;10652;50.306;8.570;2023-03-19T15:37:15;0.10;;;0.10;;
20986;SDS011;10652;50.306;8.570;2023-03-19T15:41:17;0.08;;;0.08;;
20986;SDS011;10652;50.306;8.570;2023-03-19T15:45:21;0.65;;;0.45;;
20986;SDS011;10652;50.306;8.570;2023-03-19T15:49:29;0.10;;;0.10;;
20986;SDS011;10652;50.306;8.570;2023-03-19T15:53:37;0.47;;;0.38;;
20986;SDS011;10652;50.306;8.570;2023-03-19T15:57:39;0.10;;;0.10;;
20986;SDS011;10652;50.306;8.570;2023-03-19T16:01:43;0.30;;;0.10;;
20986;SDS011;10652;50.306;8.570;2023-03-19T16:05:49;0.30;;;0.20;;
20986;SDS011;10652;50.306;8.570;2023-03-19T16:09:53;0.30;;;0.15;;
20986;SDS011;10652;50.306;8.570;2023-03-19T16:13:58;0.38;;;0.15;;
20986;SDS011;10652;50.306;8.570;2023-03-19T16:18:40;0.60;;;0.32;;
20986;SDS011;10652;50.306;8.570;2023-03-19T16:22:41;0.43;;;0.20;;
20986;SDS011;10652;50.306;8.570;2023-03-19T16:26:46;0.20;;;0.20;;
20986;SDS011;10652;50.306;8.570;2023-03-19T16:30:49;1.20;;;0.52;;
20986;SDS011;10652;50.306;8.570;2023-03-19T16:38:57;0.40;;;0.40;;
20986;SDS011;10652;50.306;8.570;2023-03-19T16:43:21;0.30;;;0.30;;
20986;SDS011;10652;50.306;8.570;2023-03-19T16:47:24;0.30;;;0.30;;
20986;SDS011;10652;50.306;8.570;2023-03-19T16:51:26;2.30;;;0.20;;
20986;SDS011;10652;50.306;8.570;2023-03-19T16:55:29;0.50;;;0.40;;
20986;SDS011;10652;50.306;8.570;2023-03-19T16:59:34;0.60;;;0.40;;
20986;SDS011;10652;50.306;8.570;2023-03-19T17:03:36;0.77;;;0.50;;
20986;SDS011;10652;50.306;8.570;2023-03-19T17:07:39;2.10;;;1.02;;
20986;SDS011;10652;50.306;8.570;2023-03-19T17:11:42;1.95;;;1.70;;
20986;SDS011;10652;50.306;8.570;2023-03-19T17:15:44;1.25;;;0.90;;
20986;SDS011;10652;50.306;8.570;2023-03-19T17:19:49;1.65;;;0.90;;
20986;SDS011;10652;50.306;8.570;2023-03-19T17:23:52;1.42;;;0.50;;
20986;SDS011;10652;50.306;8.570;2023-03-19T17:27:54;3.17;;;0.82;;
20986;SDS011;10652;50.306;8.570;2023-03-19T17:31:57;2.70;;;1.38;;
20986;SDS011;10652;50.306;8.570;2023-03-19T17:36:07;2.15;;;1.52;;
20986;SDS011;10652;50.306;8.570;2023-03-19T17:40:17;2.47;;;1.65;;
20986;SDS011;10652;50.306;8.570;2023-03-19T17:44:24;1.73;;;1.50;;
20986;SDS011;10652;50.306;8.570;2023-03-19T17:48:28;2.40;;;1.52;;
20986;SDS011;10652;50.306;8.570;2023-03-19T17:52:30;4.90;;;2.47;;
20986;SDS011;10652;50.306;8.570;2023-03-19T17:56:32;5.18;;;3.92;;
20986;SDS011;10652;50.306;8.570;2023-03-19T18:00:34;4.95;;;3.10;;
20986;SDS011;10652;50.306;8.570;2023-03-19T18:04:37;3.28;;;2.08;;
20986;SDS011;10652;50.306;8.570;2023-03-19T18:08:39;4.80;;;3.10;;
20986;SDS011;10652;50.306;8.570;2023-03-19T18:12:41;5.07;;;2.83;;
20986;SDS011;10652;50.306;8.570;2023-03-19T18:16:43;3.63;;;2.50;;
20986;SDS011;10652;50.306;8.570;2023-03-19T18:20:47;3.72;;;2.10;;
20986;SDS011;10652;50.306;8.570;2023-03-19T18:24:49;3.40;;;2.35;;
20986;SDS011;10652;50.306;8.570;2023-03-19T18:28:51;4.55;;;3.20;;
20986;SDS011;10652;50.306;8.570;2023-03-19T18:32:55;6.30;;;3.88;;
20986;SDS011;10652;50.306;8.570;2023-03-19T18:36:59;3.03;;;2.63;;
20986;SDS011;10652;50.306;8.570;2023-03-19T18:41:01;3.00;;;2.15;;
20986;SDS011;10652;50.306;8.570;2023-03-19T18:45:04;2.65;;;2.03;;
20986;SDS011;10652;50.306;8.570;2023-03-19T18:49:41;2.60;;;2.20;;
20986;SDS011;10652;50.306;8.570;2023-03-19T18:53:35;3.88;;;2.50;;
20986;SDS011;10652;50.306;8.570;2023-03-19T18:57:38;6.85;;;3.90;;
20986;SDS011;10652;50.306;8.570;2023-03-19T19:01:55;20.88;;;14.85;;
20986;SDS011;10652;50.306;8.570;2023-03-19T19:06:01;4.88;;;3.58;;
20986;SDS011;10652;50.306;8.570;2023-03-19T19:10:03;2.53;;;1.90;;
20986;SDS011;10652;50.306;8.570;2023-03-19T19:14:07;1.80;;;1.42;;
20986;SDS011;10652;50.306;8.570;2023-03-19T19:18:21;1.50;;;1.30;;
20986;SDS011;10652;50.306;8.570;2023-03-19T19:22:25;1.75;;;1.50;;
20986;SDS011;10652;50.306;8.570;2023-03-19T19:26:28;2.15;;;1.65;;
20986;SDS011;10652;50.306;8.570;2023-03-19T19:30:31;1.95;;;1.75;;
20986;SDS011;10652;50.306;8.570;2023-03-19T19:34:34;2.38;;;1.95;;
20986;SDS011;10652;50.306;8.570;2023-03-19T19:38:36;1.90;;;1.70;;
20986;SDS011;10652;50.306;8.570;2023-03-19T19:42:38;2.33;;;2.00;;
20986;SDS011;10652;50.306;8.570;2023-03-19T19:46:40;2.95;;;2.17;;
20986;SDS011;10652;50.306;8.570;2023-03-19T19:50:43;2.90;;;1.92;;
20986;SDS011;10652;50.306;8.570;2023-03-19T19:54:47;2.45;;;2.15;;
20986;SDS011;10652;50.306;8.570;2023-03-19T19:58:49;6.15;;;3.42;;
20986;SDS011;10652;50.306;8.570;2023-03-19T20:02:55;5.15;;;2.58;;
20986;SDS011;10652;50.306;8.570;2023-03-19T20:06:58;3.50;;;2.60;;
20986;SDS011;10652;50.306;8.570;2023-03-19T20:11:00;5.65;;;3.50;;
20986;SDS011;10652;50.306;8.570;2023-03-19T20:15:08;5.60;;;3.38;;
20986;SDS011;10652;50.306;8.570;2023-03-19T20:19:18;4.13;;;3.72;;
20986;SDS011;10652;50.306;8.570;2023-03-19T20:23:21;4.00;;;3.25;;
20986;SDS011;10652;50.306;8.570;2023-03-19T20:27:25;5.93;;;4.35;;
20986;SDS011;10652;50.306;8.570;2023-03-19T20:31:32;3.20;;;2.90;;
20986;SDS011;10652;50.306;8.570;2023-03-19T20:35:37;3.47;;;2.85;;
20986;SDS011;10652;50.306;8.570;2023-03-19T20:39:39;5.20;;;2.95;;
20986;SDS011;10652;50.306;8.570;2023-03-19T20:43:41;2.85;;;2.55;;
20986;SDS011;10652;50.306;8.570;2023-03-19T20:47:43;3.25;;;2.47;;
20986;SDS011;10652;50.306;8.570;2023-03-19T20:51:47;2.70;;;2.20;;
20986;SDS011;10652;50.306;8.570;2023-03-19T20:55:49;2.70;;;2.50;;
20986;SDS011;10652;50.306;8.570;2023-03-19T20:59:51;2.13;;;1.80;;
20986;SDS011;10652;50.306;8.570;2023-03-19T21:03:53;2.10;;;1.65;;
20986;SDS011;10652;50.306;8.570;2023-03-19T21:07:55;1.80;;;1.55;;
20986;SDS011;10652;50.306;8.570;2023-03-19T21:11:58;4.65;;;2.10;;
20986;SDS011;10652;50.306;8.570;2023-03-19T21:16:00;25.52;;;12.50;;
20986;SDS011;10652;50.306;8.570;2023-03-19T21:20:02;20.80;;;12.73;;
20986;SDS011;10652;50.306;8.570;2023-03-19T21:32:27;14.95;;;8.20;;
20986;SDS011;10652;50.306;8.570;2023-03-19T21:36:29;17.80;;;10.23;;
20986;SDS011;10652;50.306;8.570;2023-03-19T21:40:31;16.92;;;9.15;;
20986;SDS011;10652;50.306;8.570;2023-03-19T21:44:33;14.10;;;9.85;;
20986;SDS011;10652;50.306;8.570;2023-03-19T21:48:36;19.38;;;12.00;;
20986;SDS011;10652;50.306;8.570;2023-03-19T21:52:40;13.63;;;9.55;;
20986;SDS011;10652;50.306;8.570;2023-03-19T21:57:00;7.30;;;4.43;;
20986;SDS011;10652;50.306;8.570;2023-03-19T22:01:03;4.07;;;3.47;;
20986;SDS011;10652;50.306;8.570;2023-03-19T22:05:13;4.80;;;3.87;;
20986;SDS011;10652;50.306;8.570;2023-03-19T22:09:19;4.68;;;3.85;;
20986;SDS011;10652;50.306;8.570;2023-03-19T22:13:23;5.55;;;3.72;;
20986;SDS011;10652;50.306;8.570;2023-03-19T22:17:28;7.50;;;5.13;;
20986;SDS011;10652;50.306;8.570;2023-03-19T22:21:31;3.97;;;3.55;;
20986;SDS011;10652;50.306;8.570;2023-03-19T22:25:35;5.18;;;3.45;;
20986;SDS011;10652;50.306;8.570;2023-03-19T22:29:46;4.97;;;3.08;;
20986;SDS011;10652;50.306;8.570;2023-03-19T22:33:48;4.65;;;3.10;;
20986;SDS011;10652;50.306;8.570;2023-03-19T22:37:50;3.25;;;2.65;;
20986;SDS011;10652;50.306;8.570;2023-03-19T22:41:52;5.80;;;4.40;;
20986;SDS011;10652;50.306;8.570;2023-03-19T22:45:55;3.08;;;2.63;;
20986;SDS011;10652;50.306;8.570;2023-03-19T22:50:01;2.95;;;2.60;;
20986;SDS011;10652;50.306;8.570;2023-03-19T22:54:05;4.60;;;2.33;;
20986;SDS011;10652;50.306;8.570;2023-03-19T22:58:07;2.50;;;2.30;;
20986;SDS011;10652;50.306;8.570;2023-03-19T23:02:12;6.50;;;4.82;;
20986;SDS011;10652;50.306;8.570;2023-03-19T23:06:19;5.80;;;4.05;;
20986;SDS011;10652;50.306;8.570;2023-03-19T23:10:31;6.93;;;3.65;;
20986;SDS011;10652;50.306;8.570;2023-03-19T23:14:33;7.30;;;4.00;;
20986;SDS011;10652;50.306;8.570;2023-03-19T23:18:37;7.80;;;3.90;;
20986;SDS011;10652;50.306;8.570;2023-03-19T23:22:39;6.28;;;3.65;;
20986;SDS011;10652;50.306;8.570;2023-03-19T23:26:43;5.90;;;3.67;;
20986;SDS011;10652;50.306;8.570;2023-03-19T23:30:48;3.95;;;3.40;;
20986;SDS011;10652;50.306;8.570;2023-03-19T23:34:52;5.55;;;3.50;;
20986;SDS011;10652;50.306;8.570;2023-03-19T23:39:02;4.75;;;3.60;;
20986;SDS011;10652;50.306;8.570;2023-03-19T23:43:06;4.13;;;3.58;;
20986;SDS011;10652;50.306;8.570;2023-03-19T23:47:18;4.13;;;3.53;;
20986;SDS011;10652;50.306;8.570;2023-03-19T23:51:20;4.15;;;3.47;;
20986;SDS011;10652;50.306;8.570;2023-03-19T23:55:22;5.32;;;3.42;;
20986;SDS011;10652;50.306;8.570;2023-03-19T23:59:25;5.28;;;3.55;;
